West Navigator — 3ERR2 — position and weather

sailwx.info

Track history (hours):
 
Tides and Currents Weather Stations Pressure Air Temp Water Temp Dewpoint Dewpoint Depression Visibility Wind Speed Wind Dir Waves Ship Positions

West Navigator

Last reported at 2015-Jan-28 06:00 UTC. Time now 2015-Jan-28 09:16 UTC.
Position N 60°42' E 005°06'.

Length 253 m; draft 15 m.

Type: Other ship. MMSI: 370144000.

Wind from 190 at 15 knots

Waves 0.5 meters (2 feet), 4 second period

Barometer 985.3 mb
Air temperature 6.0 ° C
Dewpoint 5.3 ° C

Date/timePositionNaut miles runAvg speedWind from/ knotsBaromVisibWave heightAir tempDewpointWater temp
2015-Jan-28 06:00N 60°42' E 005°06'0 0.0 190 / 15985.3 0.5 6.0 5.3
2015-Jan-28 03:00N 60°42' E 005°06'0 0.0 190 / 17991.1 0.5 6.8 6.2
2015-Jan-28 00:00N 60°42' E 005°06'0 0.0 210 / 14996.9 0.5 6.8 6.7
2015-Jan-27 18:00N 60°42' E 005°06'0 0.0 220 / 101004.0 0.5 7.2 7.2
2015-Jan-27 12:00N 60°42' E 005°06'0 0.0 160 / 141008.4 0.5 4.5 4.5
2015-Jan-27 09:00N 60°42' E 005°06'0 0.0 120 / 81010.8 0.5 3.0 2.9
2015-Jan-27 03:00N 60°42' E 005°06'0 0.0 120 / 81011.6 0.5 1.9 1.6
2015-Jan-27 00:00N 60°42' E 005°06'0 0.0 140 / 51011.9 0.5 2.3 1.7
2015-Jan-26 21:00N 60°42' E 005°06'0 0.0 010 / 21010.5 1.5 2.4 1.9
2015-Jan-26 18:00N 60°42' E 005°06'0 0.0 110 / 31007.7 1.0 2.5 2.0
2015-Jan-26 15:00N 60°42' E 005°06'0 0.0 250 / 31005.2 0.5 4.1 2.2
2015-Jan-26 09:00N 60°42' E 005°06'0 0.0 170 / 111004.2 0.5 4.7 3.6
2015-Jan-26 06:00N 60°42' E 005°06'0 0.0 220 / 21004.8 1.0 5.3 2.7
2015-Jan-26 03:00N 60°42' E 005°06'0 0.0 220 / 51005.3 0.5 6.9 6.3
2015-Jan-26 00:00N 60°42' E 005°06'0 0.0 210 / 101005.8 0.5 7.5 7.5
2015-Jan-25 21:00N 60°42' E 005°06'0 0.0 180 / 231006.8 0.5 5.8 5.8
2015-Jan-25 18:00N 60°42' E 005°06'0 0.0 160 / 221009.4 0.5 5.2 4.7
2015-Jan-25 12:00N 60°42' E 005°06'0 0.0 160 / 201014.5 0.5 3.5 2.7
2015-Jan-25 09:00N 60°42' E 005°06'0 0.0 150 / 161016.1 0.5 3.3 2.3
2015-Jan-25 06:00N 60°42' E 005°06'0 0.0 120 / 91016.2 0.5 2.5 2.0
2015-Jan-25 00:00N 60°42' E 005°06'0 0.0 120 / 71014.0 0.5 1.6 1.0
2015-Jan-24 21:00N 60°42' E 005°06'0 0.0 120 / 81012.7 1.0 2.0 1.3
2015-Jan-24 18:00N 60°42' E 005°06'0 0.0 300 / 71009.9 1.0 2.5 1.6
2015-Jan-24 15:00N 60°42' E 005°06'0 0.0 280 / 11005.8 1.5 3.4 2.1
2015-Jan-24 09:00N 60°42' E 005°06'0 0.0 110 / 41002.2 1.0 3.1 2.0
2015-Jan-24 06:00N 60°42' E 005°06'0 0.0 230 / 41001.0 1.0 4.5 2.3
2015-Jan-24 03:00N 60°42' E 005°06'0 0.0 130 / 2999.9 0.5 3.4 2.8
2015-Jan-24 00:00N 60°42' E 005°06'0 0.0 200 / 11999.4 0.5 3.4 3.3
2015-Jan-23 18:00N 60°42' E 005°06'0 0.0 160 / 261003.2 0.5 3.4 3.0
2015-Jan-23 15:00N 60°42' E 005°06'0 0.0 160 / 261006.3 0.5 4.1 2.7
2015-Jan-23 12:00N 60°42' E 005°06'0 0.0 160 / 281009.5 0.5 4.4 2.1
2015-Jan-23 06:00N 60°42' E 005°06'0 0.0 160 / 211014.9 0.5 2.3-1.0
2015-Jan-23 03:00N 60°42' E 005°06'0 0.0 130 / 171016.8 0.5 1.2-4.2
2015-Jan-23 00:00N 60°42' E 005°06'0 0.0 120 / 151019.0 0.5 1.1-5.6
2015-Jan-22 21:00N 60°42' E 005°06'0 0.0 120 / 111021.0 1.0-0.5-7.1
2015-Jan-22 15:00N 60°42' E 005°06'0 0.0 120 / 71022.7 0.5 0.6-7.9
2015-Jan-22 12:00N 60°42' E 005°06'0 0.0 120 / 61022.9 1.5 0.5-8.8
2015-Jan-22 09:00N 60°42' E 005°06'0 0.0 110 / 31023.4 1.5-0.2-8.2
2015-Jan-22 06:10N 60°42' E 005°06'0 0.0 090 / 21022.8 1.0-0.7-10.0
2015-Jan-22 03:00N 60°42' E 005°06'0 0.0 090 / 31022.8 1.0-0.6-10.0
2015-Jan-22 00:00N 60°42' E 005°06'0 0.0 040 / 41022.4 0.5-0.1-9.1
2015-Jan-21 21:00N 60°42' E 005°06'0 0.0 060 / 31021.7 1.0 0.5-9.6
2015-Jan-21 12:00N 60°42' E 005°06'0 0.0 100 / 51018.6 0.5 4.2-7.6
2015-Jan-21 09:00N 60°42' E 005°06'0 0.0 080 / 61017.6 1.0 2.5-8.0
2015-Jan-21 06:00N 60°42' E 005°06'0 0.0 080 / 71015.8 0.5 2.6-8.2
2015-Jan-21 00:00N 60°42' E 005°06'0 0.0 100 / 121014.9 0.5 3.2-7.2
2015-Jan-20 21:00N 60°42' E 005°06'0 0.0 110 / 111015.1 0.5 3.0-7.1
2015-Jan-20 18:00N 60°42' E 005°06'23 3.9 090 / 91014.8 0.5 2.6-7.1
2015-Jan-20 12:00N 60°42' E 004°18'4214.1 130 / 211014.0 1.0 3.6-4.8
2015-Jan-20 09:00N 61°24' E 004°06'18 6.0 140 / 191014.7 1.5 3.1-5.6
2015-Jan-20 06:00N 61°42' E 004°06'4414.8 150 / 231013.8 1.5 3.4-4.2
2015-Jan-20 03:00N 62°24' E 004°36'25 8.4 180 / 221014.8 1.5 4.0-3.6
2015-Jan-20 00:00N 62°36' E 005°24'3 0.9 180 / 171015.1 1.5 3.9-5.3
2015-Jan-19 21:00N 62°36' E 005°30'3 0.9 170 / 161014.7 1.5 4.1-5.9
2015-Jan-19 18:00N 62°36' E 005°36'4414.5 180 / 201013.9 2.0 4.0-4.2
2015-Jan-19 15:00N 63°12' E 006°30'30 5.0 190 / 211013.6 1.5 4.2-5.2
2015-Jan-19 09:00N 63°12' E 007°36'0 0.0 120 / 101013.6 3.0 1.8-5.3
2015-Jan-19 06:00N 63°12' E 007°36'0 0.0 120 / 91012.2 1.0 2.1-5.9
2015-Jan-19 03:00N 63°12' E 007°36'0 0.0 100 / 61011.5 2.8-5.0
2015-Jan-19 00:00N 63°12' E 007°36'0 0.0 150 / 31010.8 0.5 3.6-4.9
2015-Jan-18 21:00N 63°12' E 007°36'0 0.0 160 / 51009.3 1.0 4.0-3.8
2015-Jan-18 18:00N 63°12' E 007°36'0 0.0 210 / 91007.8 0.5 4.8-2.0
2015-Jan-18 12:00N 63°12' E 007°36'0 0.0 210 / 121005.2 0.5 4.4 0.4
2015-Jan-18 09:00N 63°12' E 007°36'   220 / 131003.4 0.5 3.9-0.6
Track history (hours):
 
Tides and Currents Weather Stations Pressure Air Temp Water Temp Dewpoint Dewpoint Depression Visibility Wind Speed Wind Dir Waves Ship Positions

West Navigator

Last reported at 2015-Jan-28 06:00 UTC. Time now 2015-Jan-28 09:16 UTC.
Position N 60°42' E 005°06'.

Length 253 m; draft 15 m.

Type: Other ship. MMSI: 370144000.

Wind from 190 at 15 knots

Waves 0.5 meters (2 feet), 4 second period

Barometer 985.3 mb
Air temperature 6.0 ° C
Dewpoint 5.3 ° C

Date/timePositionNaut miles runAvg speedWind from/ knotsBaromVisibWave heightAir tempDewpointWater temp
2015-Jan-28 06:00N 60°42' E 005°06'0 0.0 190 / 15985.3 0.5 6.0 5.3
2015-Jan-28 03:00N 60°42' E 005°06'0 0.0 190 / 17991.1 0.5 6.8 6.2
2015-Jan-28 00:00N 60°42' E 005°06'0 0.0 210 / 14996.9 0.5 6.8 6.7
2015-Jan-27 18:00N 60°42' E 005°06'0 0.0 220 / 101004.0 0.5 7.2 7.2
2015-Jan-27 12:00N 60°42' E 005°06'0 0.0 160 / 141008.4 0.5 4.5 4.5
2015-Jan-27 09:00N 60°42' E 005°06'0 0.0 120 / 81010.8 0.5 3.0 2.9
2015-Jan-27 03:00N 60°42' E 005°06'0 0.0 120 / 81011.6 0.5 1.9 1.6
2015-Jan-27 00:00N 60°42' E 005°06'0 0.0 140 / 51011.9 0.5 2.3 1.7
2015-Jan-26 21:00N 60°42' E 005°06'0 0.0 010 / 21010.5 1.5 2.4 1.9
2015-Jan-26 18:00N 60°42' E 005°06'0 0.0 110 / 31007.7 1.0 2.5 2.0
2015-Jan-26 15:00N 60°42' E 005°06'0 0.0 250 / 31005.2 0.5 4.1 2.2
2015-Jan-26 09:00N 60°42' E 005°06'0 0.0 170 / 111004.2 0.5 4.7 3.6
2015-Jan-26 06:00N 60°42' E 005°06'0 0.0 220 / 21004.8 1.0 5.3 2.7
2015-Jan-26 03:00N 60°42' E 005°06'0 0.0 220 / 51005.3 0.5 6.9 6.3
2015-Jan-26 00:00N 60°42' E 005°06'0 0.0 210 / 101005.8 0.5 7.5 7.5
2015-Jan-25 21:00N 60°42' E 005°06'0 0.0 180 / 231006.8 0.5 5.8 5.8
2015-Jan-25 18:00N 60°42' E 005°06'0 0.0 160 / 221009.4 0.5 5.2 4.7
2015-Jan-25 12:00N 60°42' E 005°06'0 0.0 160 / 201014.5 0.5 3.5 2.7
2015-Jan-25 09:00N 60°42' E 005°06'0 0.0 150 / 161016.1 0.5 3.3 2.3
2015-Jan-25 06:00N 60°42' E 005°06'0 0.0 120 / 91016.2 0.5 2.5 2.0
2015-Jan-25 00:00N 60°42' E 005°06'0 0.0 120 / 71014.0 0.5 1.6 1.0
2015-Jan-24 21:00N 60°42' E 005°06'0 0.0 120 / 81012.7 1.0 2.0 1.3
2015-Jan-24 18:00N 60°42' E 005°06'0 0.0 300 / 71009.9 1.0 2.5 1.6
2015-Jan-24 15:00N 60°42' E 005°06'0 0.0 280 / 11005.8 1.5 3.4 2.1
2015-Jan-24 09:00N 60°42' E 005°06'0 0.0 110 / 41002.2 1.0 3.1 2.0
2015-Jan-24 06:00N 60°42' E 005°06'0 0.0 230 / 41001.0 1.0 4.5 2.3
2015-Jan-24 03:00N 60°42' E 005°06'0 0.0 130 / 2999.9 0.5 3.4 2.8
2015-Jan-24 00:00N 60°42' E 005°06'0 0.0 200 / 11999.4 0.5 3.4 3.3
2015-Jan-23 18:00N 60°42' E 005°06'0 0.0 160 / 261003.2 0.5 3.4 3.0
2015-Jan-23 15:00N 60°42' E 005°06'0 0.0 160 / 261006.3 0.5 4.1 2.7
2015-Jan-23 12:00N 60°42' E 005°06'0 0.0 160 / 281009.5 0.5 4.4 2.1
2015-Jan-23 06:00N 60°42' E 005°06'0 0.0 160 / 211014.9 0.5 2.3-1.0
2015-Jan-23 03:00N 60°42' E 005°06'0 0.0 130 / 171016.8 0.5 1.2-4.2
2015-Jan-23 00:00N 60°42' E 005°06'0 0.0 120 / 151019.0 0.5 1.1-5.6
2015-Jan-22 21:00N 60°42' E 005°06'0 0.0 120 / 111021.0 1.0-0.5-7.1
2015-Jan-22 15:00N 60°42' E 005°06'0 0.0 120 / 71022.7 0.5 0.6-7.9
2015-Jan-22 12:00N 60°42' E 005°06'0 0.0 120 / 61022.9 1.5 0.5-8.8
2015-Jan-22 09:00N 60°42' E 005°06'0 0.0 110 / 31023.4 1.5-0.2-8.2
2015-Jan-22 06:10N 60°42' E 005°06'0 0.0 090 / 21022.8 1.0-0.7-10.0
2015-Jan-22 03:00N 60°42' E 005°06'0 0.0 090 / 31022.8 1.0-0.6-10.0
2015-Jan-22 00:00N 60°42' E 005°06'0 0.0 040 / 41022.4 0.5-0.1-9.1
2015-Jan-21 21:00N 60°42' E 005°06'0 0.0 060 / 31021.7 1.0 0.5-9.6
2015-Jan-21 12:00N 60°42' E 005°06'0 0.0 100 / 51018.6 0.5 4.2-7.6
2015-Jan-21 09:00N 60°42' E 005°06'0 0.0 080 / 61017.6 1.0 2.5-8.0
2015-Jan-21 06:00N 60°42' E 005°06'0 0.0 080 / 71015.8 0.5 2.6-8.2
2015-Jan-21 00:00N 60°42' E 005°06'0 0.0 100 / 121014.9 0.5 3.2-7.2
2015-Jan-20 21:00N 60°42' E 005°06'0 0.0 110 / 111015.1 0.5 3.0-7.1
2015-Jan-20 18:00N 60°42' E 005°06'23 3.9 090 / 91014.8 0.5 2.6-7.1
2015-Jan-20 12:00N 60°42' E 004°18'4214.1 130 / 211014.0 1.0 3.6-4.8
2015-Jan-20 09:00N 61°24' E 004°06'18 6.0 140 / 191014.7 1.5 3.1-5.6
2015-Jan-20 06:00N 61°42' E 004°06'4414.8 150 / 231013.8 1.5 3.4-4.2
2015-Jan-20 03:00N 62°24' E 004°36'25 8.4 180 / 221014.8 1.5 4.0-3.6
2015-Jan-20 00:00N 62°36' E 005°24'3 0.9 180 / 171015.1 1.5 3.9-5.3
2015-Jan-19 21:00N 62°36' E 005°30'3 0.9 170 / 161014.7 1.5 4.1-5.9
2015-Jan-19 18:00N 62°36' E 005°36'4414.5 180 / 201013.9 2.0 4.0-4.2
2015-Jan-19 15:00N 63°12' E 006°30'30 5.0 190 / 211013.6 1.5 4.2-5.2
2015-Jan-19 09:00N 63°12' E 007°36'0 0.0 120 / 101013.6 3.0 1.8-5.3
2015-Jan-19 06:00N 63°12' E 007°36'0 0.0 120 / 91012.2 1.0 2.1-5.9
2015-Jan-19 03:00N 63°12' E 007°36'0 0.0 100 / 61011.5 2.8-5.0
2015-Jan-19 00:00N 63°12' E 007°36'0 0.0 150 / 31010.8 0.5 3.6-4.9
2015-Jan-18 21:00N 63°12' E 007°36'0 0.0 160 / 51009.3 1.0 4.0-3.8
2015-Jan-18 18:00N 63°12' E 007°36'0 0.0 210 / 91007.8 0.5 4.8-2.0
2015-Jan-18 12:00N 63°12' E 007°36'0 0.0 210 / 121005.2 0.5 4.4 0.4
2015-Jan-18 09:00N 63°12' E 007°36'   220 / 131003.4 0.5 3.9-0.6

Dump ship's entire track history